createdAt,value
2023-04-20T00:00:58.696Z,6.71
2023-04-20T00:03:28.001Z,6.69
2023-04-20T00:05:56.178Z,6.71
2023-04-20T00:08:24.152Z,6.70
2023-04-20T00:10:52.330Z,6.68
2023-04-20T00:13:20.355Z,6.70
2023-04-20T00:15:48.475Z,6.73
2023-04-20T00:18:16.468Z,6.76
2023-04-20T00:20:44.579Z,6.78
2023-04-20T00:23:12.627Z,6.78
2023-04-20T00:25:40.603Z,6.79
2023-04-20T00:28:08.668Z,6.75
2023-04-20T00:30:36.734Z,6.76
2023-04-20T00:33:04.958Z,6.75
2023-04-20T00:35:33.137Z,6.76
2023-04-20T00:38:01.195Z,6.75
2023-04-20T00:40:29.177Z,6.70
2023-04-20T00:42:57.289Z,6.71
2023-04-20T00:45:25.539Z,6.67
2023-04-20T00:47:53.758Z,6.66
2023-04-20T00:50:21.772Z,6.63
2023-04-20T00:52:49.772Z,6.60
2023-04-20T00:55:17.759Z,6.62
2023-04-20T00:57:45.692Z,6.62
2023-04-20T01:00:14.094Z,6.56
2023-04-20T01:02:42.721Z,6.54
2023-04-20T01:05:11.672Z,6.55
2023-04-20T01:07:39.602Z,6.56
2023-04-20T01:10:08.792Z,6.57
2023-04-20T01:12:36.965Z,6.58
2023-04-20T01:15:08.355Z,6.59
2023-04-20T01:17:39.454Z,6.59
2023-04-20T01:20:10.463Z,6.58
2023-04-20T01:22:49.148Z,6.60
2023-04-20T01:25:17.556Z,6.60
2023-04-20T01:27:45.751Z,6.62
2023-04-20T01:30:13.948Z,6.62
2023-04-20T01:32:42.013Z,6.65
2023-04-20T01:35:10.398Z,6.61
2023-04-20T01:37:38.493Z,6.62
2023-04-20T01:40:07.762Z,6.64
2023-04-20T01:42:35.785Z,6.63
2023-04-20T01:45:03.781Z,6.65
2023-04-20T01:47:32.319Z,6.70
2023-04-20T01:50:00.253Z,6.68
2023-04-20T01:52:28.311Z,6.63
2023-04-20T01:54:56.460Z,6.67
2023-04-20T01:57:24.576Z,6.65
2023-04-20T01:59:52.687Z,6.71
2023-04-20T02:02:20.706Z,6.70
2023-04-20T02:04:48.762Z,6.62
2023-04-20T02:07:17.294Z,6.64
2023-04-20T02:09:45.288Z,6.68
2023-04-20T02:12:13.245Z,6.68
2023-04-20T02:14:41.212Z,6.66
2023-04-20T02:17:09.184Z,6.64
2023-04-20T02:19:37.620Z,6.63
2023-04-20T02:22:05.509Z,6.63
2023-04-20T02:24:33.820Z,6.64
2023-04-20T02:27:02.514Z,6.66
2023-04-20T02:29:30.551Z,6.67
2023-04-20T02:31:58.728Z,6.68
2023-04-20T02:34:27.498Z,6.59
2023-04-20T02:36:55.560Z,6.57
2023-04-20T02:39:23.590Z,6.58
2023-04-20T02:41:51.883Z,6.54
2023-04-20T02:44:19.808Z,6.55
2023-04-20T02:46:47.915Z,6.55
2023-04-20T02:49:16.118Z,6.59
2023-04-20T02:51:44.327Z,6.57
2023-04-20T02:54:12.361Z,6.53
2023-04-20T02:56:40.372Z,6.52
2023-04-20T02:59:08.635Z,6.48
2023-04-20T03:01:36.601Z,6.49
2023-04-20T03:04:05.966Z,6.49
2023-04-20T03:06:34.751Z,6.49
2023-04-20T03:09:02.848Z,6.47
2023-04-20T03:11:30.907Z,6.47
2023-04-20T03:13:58.883Z,6.47
2023-04-20T03:16:27.007Z,6.45
2023-04-20T03:18:55.054Z,6.45
2023-04-20T03:21:23.085Z,6.41
2023-04-20T03:23:51.098Z,6.39
2023-04-20T03:26:19.169Z,6.38
2023-04-20T03:28:47.166Z,6.41
2023-04-20T03:31:15.184Z,6.43
2023-04-20T03:33:43.205Z,6.47
2023-04-20T03:36:12.708Z,6.50
2023-04-20T03:38:40.730Z,6.46
2023-04-20T03:41:09.520Z,6.48
2023-04-20T03:43:37.484Z,6.48
2023-04-20T03:46:05.589Z,6.46
2023-04-20T03:48:34.203Z,6.49
2023-04-20T03:51:02.505Z,6.47
2023-04-20T03:53:30.507Z,6.48
2023-04-20T03:55:58.432Z,6.46
2023-04-20T03:58:26.715Z,6.48
2023-04-20T04:00:54.701Z,6.50
2023-04-20T04:03:22.846Z,6.43
2023-04-20T04:05:51.006Z,6.43
2023-04-20T04:08:19.112Z,6.41
2023-04-20T04:10:47.296Z,6.40
2023-04-20T04:13:15.337Z,6.39
2023-04-20T04:15:43.411Z,6.36
2023-04-20T04:18:11.516Z,6.31
2023-04-20T04:20:39.583Z,6.30
2023-04-20T04:23:08.071Z,6.33
2023-04-20T04:25:39.280Z,6.31
2023-04-20T04:28:07.782Z,6.30
2023-04-20T04:30:36.402Z,6.30
2023-04-20T04:33:06.095Z,6.30
2023-04-20T04:35:35.762Z,6.28
2023-04-20T04:38:03.910Z,6.29
2023-04-20T04:40:34.211Z,6.26
2023-04-20T04:43:02.232Z,6.29
2023-04-20T04:45:31.034Z,6.28
2023-04-20T04:48:00.344Z,6.22
2023-04-20T04:50:28.612Z,6.26
2023-04-20T04:52:56.711Z,6.26
2023-04-20T04:55:24.651Z,6.28
2023-04-20T04:57:52.730Z,6.26
2023-04-20T05:00:21.013Z,6.27
2023-04-20T05:02:49.151Z,6.25
2023-04-20T05:05:17.948Z,6.28
2023-04-20T05:07:45.914Z,6.25
2023-04-20T05:10:15.192Z,6.27
2023-04-20T05:12:43.374Z,6.29
2023-04-20T05:15:11.756Z,6.29
2023-04-20T05:17:39.833Z,6.32
2023-04-20T05:20:09.345Z,6.30
2023-04-20T05:22:37.447Z,6.30
2023-04-20T05:25:07.629Z,6.29
2023-04-20T05:27:35.819Z,6.30
2023-04-20T05:30:17.141Z,6.31
2023-04-20T05:32:51.072Z,6.30
2023-04-20T05:35:19.865Z,6.32
2023-04-20T05:37:48.898Z,6.30
2023-04-20T05:40:17.293Z,6.30
2023-04-20T05:42:45.379Z,6.31
2023-04-20T05:45:13.487Z,6.28
2023-04-20T05:47:41.530Z,6.27
2023-04-20T05:50:10.339Z,6.31
2023-04-20T05:52:38.353Z,6.31
2023-04-20T05:55:06.746Z,6.35
2023-04-20T05:57:34.690Z,6.35
2023-04-20T06:00:03.256Z,6.34
2023-04-20T06:02:31.362Z,6.33
2023-04-20T06:05:00.012Z,6.33
2023-04-20T06:07:28.201Z,6.36
2023-04-20T06:09:56.210Z,6.32
2023-04-20T06:12:26.288Z,6.33
2023-04-20T06:14:54.813Z,6.35
2023-04-20T06:17:23.031Z,6.38
2023-04-20T06:19:51.039Z,6.39
2023-04-20T06:22:19.064Z,6.36
2023-04-20T06:24:47.081Z,6.35
2023-04-20T06:27:15.267Z,6.41
2023-04-20T06:29:43.281Z,6.44
2023-04-20T06:32:11.288Z,6.43
2023-04-20T06:34:39.394Z,6.87
2023-04-20T06:37:08.983Z,7.21
2023-04-20T06:39:37.324Z,7.54
2023-04-20T06:42:05.319Z,7.68
2023-04-20T06:44:33.287Z,7.79
2023-04-20T06:47:01.735Z,7.57
2023-04-20T06:49:29.988Z,7.31
2023-04-20T06:51:57.937Z,7.13
2023-04-20T06:54:25.992Z,7.02
2023-04-20T06:56:53.978Z,6.92
2023-04-20T06:59:22.198Z,6.89
2023-04-20T07:01:50.164Z,6.83
2023-04-20T07:04:18.289Z,6.74
2023-04-20T07:06:46.377Z,6.76
2023-04-20T07:09:14.518Z,6.75
2023-04-20T07:11:42.571Z,6.72
2023-04-20T07:14:10.582Z,6.71
2023-04-20T07:16:38.696Z,6.72
2023-04-20T07:19:06.970Z,6.70
2023-04-20T07:21:35.389Z,6.68
2023-04-20T07:24:03.718Z,6.65
2023-04-20T07:26:31.837Z,6.65
2023-04-20T07:28:59.774Z,6.66
2023-04-20T07:31:27.784Z,6.68
2023-04-20T07:33:55.734Z,6.68
2023-04-20T07:36:24.006Z,6.66
2023-04-20T07:38:52.009Z,6.66
2023-04-20T07:41:20.098Z,6.72
2023-04-20T07:43:48.125Z,6.77
2023-04-20T07:46:23.728Z,6.81
2023-04-20T07:48:51.853Z,6.80
2023-04-20T07:51:19.908Z,6.84
2023-04-20T07:53:48.207Z,6.91
2023-04-20T07:56:16.302Z,6.96
2023-04-20T07:58:44.380Z,6.98
2023-04-20T08:01:12.604Z,6.95
2023-04-20T08:03:40.989Z,6.95
2023-04-20T08:06:09.164Z,6.95
2023-04-20T08:08:37.642Z,6.95
2023-04-20T08:11:05.980Z,6.93
2023-04-20T08:13:34.062Z,6.89
2023-04-20T08:16:02.199Z,6.86
2023-04-20T08:18:31.949Z,6.85
2023-04-20T08:20:59.977Z,6.83
2023-04-20T08:23:29.438Z,6.86
2023-04-20T08:25:57.703Z,6.89
2023-04-20T08:28:33.535Z,6.90
2023-04-20T08:31:02.552Z,6.88
2023-04-20T08:33:30.609Z,6.93
2023-04-20T08:35:58.668Z,6.93
2023-04-20T08:38:33.865Z,6.91
2023-04-20T08:41:02.478Z,6.91
2023-04-20T08:43:31.264Z,6.93
2023-04-20T08:46:01.185Z,6.95
2023-04-20T08:48:29.178Z,6.94
2023-04-20T08:50:57.375Z,6.96
2023-04-20T08:53:25.323Z,6.98
2023-04-20T08:55:53.411Z,6.97
2023-04-20T08:58:21.709Z,6.95
2023-04-20T09:00:50.267Z,6.98
2023-04-20T09:03:18.678Z,6.99
2023-04-20T09:05:47.894Z,7.03
2023-04-20T09:08:16.016Z,7.09
2023-04-20T09:10:45.128Z,7.14
2023-04-20T09:13:23.803Z,7.16
2023-04-20T09:15:51.850Z,7.22
2023-04-20T09:18:20.205Z,7.29
2023-04-20T09:20:48.252Z,7.34
2023-04-20T09:23:20.307Z,7.34
2023-04-20T09:25:53.827Z,7.34
2023-04-20T09:28:21.970Z,7.40
2023-04-20T09:30:50.591Z,7.43
2023-04-20T09:33:20.182Z,7.45
2023-04-20T09:35:48.674Z,7.52
2023-04-20T09:38:17.628Z,7.52
2023-04-20T09:40:45.680Z,7.54
2023-04-20T09:43:20.943Z,7.53
2023-04-20T09:45:49.097Z,7.53
2023-04-20T09:48:20.305Z,7.53
2023-04-20T09:50:50.450Z,7.53
2023-04-20T09:53:19.075Z,7.48
2023-04-20T09:55:48.830Z,7.46
2023-04-20T09:58:22.031Z,7.43
2023-04-20T10:00:50.476Z,7.41
2023-04-20T10:03:20.243Z,7.43
2023-04-20T10:05:48.618Z,7.40
2023-04-20T10:08:16.808Z,7.41
2023-04-20T10:10:46.304Z,7.44
2023-04-20T10:13:14.382Z,7.47
2023-04-20T10:15:43.144Z,7.50
2023-04-20T10:18:21.666Z,7.49
2023-04-20T10:20:49.728Z,7.50
2023-04-20T10:23:19.737Z,7.49
2023-04-20T10:26:01.940Z,7.53
2023-04-20T10:28:43.046Z,7.55
2023-04-20T10:31:14.900Z,7.55
2023-04-20T10:33:53.499Z,7.58
2023-04-20T10:36:35.766Z,7.56
2023-04-20T10:39:19.694Z,7.56
2023-04-20T10:41:55.810Z,7.59
2023-04-20T10:44:23.904Z,7.59
2023-04-20T10:46:55.465Z,7.61
2023-04-20T10:49:30.859Z,7.62
2023-04-20T10:51:58.953Z,7.67
2023-04-20T10:54:27.251Z,7.69
2023-04-20T10:56:55.283Z,7.72
2023-04-20T10:59:24.726Z,7.75
2023-04-20T11:01:53.208Z,7.73
2023-04-20T11:04:32.513Z,7.72
2023-04-20T11:07:11.347Z,7.69
2023-04-20T11:09:43.799Z,7.67
2023-04-20T11:12:16.033Z,7.65
2023-04-20T11:14:55.370Z,7.67
2023-04-20T11:17:36.120Z,7.65
2023-04-20T11:20:15.271Z,7.62
2023-04-20T11:22:44.048Z,7.64
2023-04-20T11:25:13.370Z,7.63
2023-04-20T11:27:41.505Z,7.65
2023-04-20T11:30:11.218Z,7.70
2023-04-20T11:32:39.752Z,7.74
2023-04-20T11:35:12.285Z,7.72
2023-04-20T11:37:56.124Z,7.75
2023-04-20T11:40:25.250Z,7.75
2023-04-20T11:42:54.676Z,7.77
2023-04-20T11:45:23.286Z,7.75
2023-04-20T11:47:52.319Z,7.72
2023-04-20T11:50:20.398Z,7.69
2023-04-20T11:52:48.532Z,7.75
2023-04-20T11:55:16.632Z,7.76
2023-04-20T11:57:44.832Z,7.73
2023-04-20T12:00:14.608Z,7.72
2023-04-20T12:02:43.099Z,7.68
2023-04-20T12:05:11.291Z,7.67
2023-04-20T12:07:39.535Z,7.63
2023-04-20T12:10:09.282Z,7.61
2023-04-20T12:12:38.261Z,7.58
2023-04-20T12:15:06.903Z,7.59
2023-04-20T12:17:35.023Z,7.59
2023-04-20T12:20:03.910Z,7.64
2023-04-20T12:22:31.861Z,7.62
2023-04-20T12:24:59.938Z,7.66
2023-04-20T12:27:28.008Z,7.69
2023-04-20T12:29:56.036Z,7.74
2023-04-20T12:32:24.190Z,7.76
2023-04-20T12:34:53.021Z,7.76
2023-04-20T12:37:22.072Z,7.79
2023-04-20T12:39:50.098Z,7.79
2023-04-20T12:42:18.140Z,7.77
2023-04-20T12:44:46.219Z,7.79
2023-04-20T12:47:15.117Z,7.85
2023-04-20T12:49:43.109Z,7.85
2023-04-20T12:52:11.305Z,7.85
2023-04-20T12:54:39.269Z,7.85
2023-04-20T12:57:07.328Z,7.85
2023-04-20T12:59:35.302Z,7.87
2023-04-20T13:02:03.388Z,7.83
2023-04-20T13:04:34.499Z,7.79
2023-04-20T13:07:02.641Z,7.79
2023-04-20T13:09:30.767Z,7.76
2023-04-20T13:11:59.332Z,7.85
2023-04-20T13:14:27.813Z,7.89
2023-04-20T13:16:55.932Z,7.89
2023-04-20T13:19:24.137Z,7.98
2023-04-20T13:21:52.233Z,7.96
2023-04-20T13:24:20.415Z,7.93
2023-04-20T13:26:48.619Z,7.92
2023-04-20T13:29:16.901Z,7.92
2023-04-20T13:31:45.827Z,7.96
2023-04-20T13:34:13.979Z,7.91
2023-04-20T13:36:42.450Z,7.89
2023-04-20T13:39:11.568Z,7.88
2023-04-20T13:41:39.890Z,7.83
2023-04-20T13:44:09.242Z,7.82
2023-04-20T13:46:37.309Z,7.82
2023-04-20T13:49:05.457Z,7.82
2023-04-20T13:51:33.941Z,7.83
2023-04-20T13:54:01.947Z,7.81
2023-04-20T13:56:30.016Z,7.86
2023-04-20T13:58:58.080Z,7.88
2023-04-20T14:01:27.246Z,7.88
2023-04-20T14:03:56.323Z,7.90
2023-04-20T14:06:24.466Z,7.87
2023-04-20T14:08:52.652Z,7.83
2023-04-20T14:11:20.808Z,7.84
2023-04-20T14:13:48.880Z,7.85
2023-04-20T14:16:17.118Z,7.88
2023-04-20T14:18:45.233Z,7.88
2023-04-20T14:21:13.217Z,7.88
2023-04-20T14:23:41.206Z,7.88
2023-04-20T14:26:09.280Z,7.83
2023-04-20T14:28:37.429Z,7.80
2023-04-20T14:31:05.547Z,7.76
2023-04-20T14:33:33.570Z,7.78
2023-04-20T14:36:01.629Z,7.81
2023-04-20T14:38:29.997Z,7.80
2023-04-20T14:40:58.003Z,7.82
2023-04-20T14:43:26.022Z,7.86
2023-04-20T14:45:54.055Z,7.89
2023-04-20T14:48:22.382Z,7.92
2023-04-20T14:50:50.422Z,7.94
2023-04-20T14:53:18.369Z,7.96
2023-04-20T14:55:46.455Z,7.96
2023-04-20T14:58:14.461Z,7.98
2023-04-20T15:00:42.534Z,7.99
2023-04-20T15:03:10.679Z,7.97
2023-04-20T15:05:38.844Z,7.97
2023-04-20T15:08:07.026Z,7.97
2023-04-20T15:10:36.499Z,7.96
2023-04-20T15:13:05.830Z,7.94
2023-04-20T15:15:47.552Z,7.96
2023-04-20T15:18:18.251Z,7.97
2023-04-20T15:20:46.789Z,7.97
2023-04-20T15:23:14.936Z,7.92
2023-04-20T15:25:42.941Z,7.92
2023-04-20T15:28:10.984Z,7.86
2023-04-20T15:30:39.038Z,7.81
2023-04-20T15:33:07.155Z,7.83
2023-04-20T15:35:36.249Z,7.87
2023-04-20T15:38:04.326Z,7.87
2023-04-20T15:40:32.657Z,7.82
2023-04-20T15:43:00.664Z,7.79
2023-04-20T15:45:28.805Z,7.75
2023-04-20T15:47:57.436Z,7.70
2023-04-20T15:50:25.561Z,7.72
2023-04-20T15:52:55.124Z,7.72
2023-04-20T15:55:23.547Z,7.70
2023-04-20T15:57:51.715Z,7.70
2023-04-20T16:00:19.997Z,7.72
2023-04-20T16:02:48.130Z,7.70
2023-04-20T16:05:16.282Z,7.63
2023-04-20T16:07:44.319Z,7.63
2023-04-20T16:10:12.493Z,7.64
2023-04-20T16:12:40.456Z,7.63
2023-04-20T16:15:08.991Z,7.65
2023-04-20T16:17:37.041Z,7.65
2023-04-20T16:20:06.423Z,7.66
2023-04-20T16:22:34.447Z,7.60
2023-04-20T16:25:02.379Z,7.59
2023-04-20T16:27:30.729Z,7.57
2023-04-20T16:29:59.152Z,7.55
2023-04-20T16:32:27.193Z,7.53
2023-04-20T16:34:55.270Z,7.55
2023-04-20T16:37:23.257Z,7.55
2023-04-20T16:39:51.260Z,7.53
2023-04-20T16:42:19.357Z,7.52
2023-04-20T16:44:47.361Z,7.52
2023-04-20T16:47:15.398Z,7.52
2023-04-20T16:49:43.521Z,7.53
2023-04-20T16:52:11.993Z,7.53
2023-04-20T16:54:40.379Z,7.52
2023-04-20T16:57:08.528Z,7.52
2023-04-20T16:59:36.577Z,7.46
2023-04-20T17:02:04.608Z,7.43
2023-04-20T17:04:33.133Z,7.43
2023-04-20T17:07:01.248Z,7.44
2023-04-20T17:09:29.415Z,7.50
2023-04-20T17:11:58.117Z,7.51
2023-04-20T17:14:26.336Z,7.52
2023-04-20T17:16:55.641Z,7.49
2023-04-20T17:19:24.813Z,7.49
2023-04-20T17:21:52.813Z,7.45
2023-04-20T17:24:20.947Z,7.47
2023-04-20T17:26:49.176Z,7.42
2023-04-20T17:29:17.283Z,7.42
2023-04-20T17:31:46.186Z,7.43
2023-04-20T17:34:14.319Z,7.43
2023-04-20T17:36:42.316Z,7.41
2023-04-20T17:39:10.802Z,7.38
2023-04-20T17:41:38.919Z,7.40
2023-04-20T17:44:06.984Z,7.43
2023-04-20T17:46:35.126Z,7.40
2023-04-20T17:49:03.112Z,7.41
2023-04-20T17:51:31.104Z,7.37
2023-04-20T17:53:59.102Z,7.40
2023-04-20T17:56:27.179Z,7.41
2023-04-20T17:58:56.249Z,7.37
2023-04-20T18:01:24.373Z,7.37
2023-04-20T18:03:52.847Z,7.37
2023-04-20T18:06:20.918Z,7.38
2023-04-20T18:08:48.956Z,7.37
2023-04-20T18:11:16.990Z,7.36
2023-04-20T18:13:46.035Z,7.36
2023-04-20T18:16:14.002Z,7.40
2023-04-20T18:18:42.158Z,7.41
2023-04-20T18:21:11.273Z,7.42
2023-04-20T18:23:39.441Z,7.39
2023-04-20T18:26:07.571Z,7.41
2023-04-20T18:28:35.665Z,7.40
2023-04-20T18:31:03.975Z,7.36
2023-04-20T18:33:32.039Z,7.30
2023-04-20T18:36:00.111Z,7.29
2023-04-20T18:38:28.146Z,7.29
2023-04-20T18:40:56.220Z,7.26
2023-04-20T18:43:24.421Z,7.27
2023-04-20T18:45:52.394Z,7.24
2023-04-20T18:48:20.374Z,7.22
2023-04-20T18:50:48.494Z,7.20
2023-04-20T18:53:16.659Z,7.23
2023-04-20T18:55:44.750Z,7.23
2023-04-20T18:58:12.749Z,7.25
2023-04-20T19:00:40.898Z,7.22
2023-04-20T19:03:09.314Z,7.19
2023-04-20T19:05:39.054Z,7.23
2023-04-20T19:08:07.090Z,7.23
2023-04-20T19:10:35.014Z,7.20
2023-04-20T19:13:03.026Z,7.18
2023-04-20T19:15:31.098Z,7.18
2023-04-20T19:17:59.251Z,7.14
2023-04-20T19:20:27.564Z,7.12
2023-04-20T19:22:55.506Z,7.09
2023-04-20T19:25:23.633Z,7.07
2023-04-20T19:30:19.815Z,7.03
2023-04-20T19:32:47.909Z,7.01
2023-04-20T19:35:15.963Z,6.99
2023-04-20T19:37:44.086Z,6.97
2023-04-20T19:40:12.383Z,6.96
2023-04-20T19:42:41.937Z,7.01
2023-04-20T19:45:10.226Z,6.99
2023-04-20T19:47:38.385Z,6.96
2023-04-20T19:50:07.125Z,6.92
2023-04-20T19:52:36.531Z,6.97
2023-04-20T19:55:05.185Z,6.97
2023-04-20T19:57:33.215Z,6.94
2023-04-20T20:00:01.258Z,6.94
2023-04-20T20:02:30.489Z,6.96
2023-04-20T20:04:58.687Z,6.90
2023-04-20T20:07:27.857Z,6.90
2023-04-20T20:09:55.884Z,6.84
2023-04-20T20:12:23.897Z,6.81
2023-04-20T20:14:51.956Z,6.77
2023-04-20T20:17:20.832Z,6.74
2023-04-20T20:19:48.938Z,6.74
2023-04-20T20:22:17.422Z,6.73
2023-04-20T20:24:45.973Z,6.73
2023-04-20T20:27:14.003Z,6.71
2023-04-20T20:29:42.421Z,6.67
2023-04-20T20:32:10.517Z,6.65
2023-04-20T20:34:38.580Z,6.64
2023-04-20T20:37:06.714Z,6.61
2023-04-20T20:39:34.650Z,6.60
2023-04-20T20:42:03.383Z,6.57
2023-04-20T20:44:34.382Z,6.57
2023-04-20T20:47:02.551Z,6.56
2023-04-20T20:49:30.847Z,6.55
2023-04-20T20:51:58.872Z,6.57
2023-04-20T20:54:27.028Z,6.54
2023-04-20T20:56:55.161Z,6.51
2023-04-20T20:59:23.194Z,6.56
2023-04-20T21:01:51.238Z,6.52
2023-04-20T21:04:19.570Z,6.51
2023-04-20T21:06:47.864Z,6.50
2023-04-20T21:09:17.087Z,6.47
2023-04-20T21:11:45.314Z,6.48
2023-04-20T21:14:13.322Z,6.42
2023-04-20T21:16:41.894Z,6.39
2023-04-20T21:19:09.989Z,6.35
2023-04-20T21:21:38.045Z,6.29
2023-04-20T21:24:06.161Z,6.28
2023-04-20T21:26:37.261Z,6.27
2023-04-20T21:29:05.522Z,6.30
2023-04-20T21:31:34.023Z,6.29
2023-04-20T21:34:02.262Z,6.25
2023-04-20T21:36:30.278Z,6.26
2023-04-20T21:38:58.301Z,6.31
2023-04-20T21:41:28.044Z,6.31
2023-04-20T21:43:55.981Z,6.31
2023-04-20T21:46:24.109Z,6.31
2023-04-20T21:48:52.730Z,6.36
2023-04-20T21:51:20.776Z,6.36
2023-04-20T21:53:48.768Z,6.38
2023-04-20T21:56:17.004Z,6.39
2023-04-20T21:58:45.095Z,6.37
2023-04-20T22:01:13.075Z,6.40
2023-04-20T22:03:41.445Z,6.41
2023-04-20T22:06:09.986Z,6.43
2023-04-20T22:08:41.152Z,6.45
2023-04-20T22:11:09.256Z,6.47
2023-04-20T22:13:37.383Z,6.48
2023-04-20T22:16:05.951Z,6.49
2023-04-20T22:18:34.095Z,6.50
2023-04-20T22:21:02.166Z,6.49
2023-04-20T22:23:30.128Z,6.50
2023-04-20T22:25:58.128Z,6.51
2023-04-20T22:28:26.124Z,6.52
2023-04-20T22:30:54.232Z,6.52
2023-04-20T22:33:22.218Z,6.53
2023-04-20T22:35:50.196Z,6.56
2023-04-20T22:38:18.186Z,6.55
2023-04-20T22:40:46.234Z,6.54
2023-04-20T22:43:14.425Z,6.53
2023-04-20T22:45:42.555Z,6.51
2023-04-20T22:48:10.651Z,6.49
2023-04-20T22:50:38.638Z,6.50
2023-04-20T22:53:06.801Z,6.50
2023-04-20T22:55:34.811Z,6.47
2023-04-20T22:58:03.025Z,6.47
2023-04-20T23:00:31.316Z,6.45
2023-04-20T23:02:59.457Z,6.43
2023-04-20T23:05:27.934Z,6.43
2023-04-20T23:07:56.454Z,6.40
2023-04-20T23:10:29.818Z,6.37
2023-04-20T23:12:57.830Z,6.36
2023-04-20T23:15:25.936Z,6.34
2023-04-20T23:17:54.718Z,6.34
2023-04-20T23:20:22.821Z,6.29
2023-04-20T23:22:50.773Z,6.26
2023-04-20T23:25:18.848Z,6.26
2023-04-20T23:27:46.903Z,6.24
2023-04-20T23:30:15.092Z,6.18
2023-04-20T23:32:44.569Z,6.16
2023-04-20T23:35:12.806Z,6.11
2023-04-20T23:37:40.766Z,6.11
2023-04-20T23:40:11.451Z,6.09
2023-04-20T23:42:39.441Z,6.08
2023-04-20T23:45:08.050Z,6.07
2023-04-20T23:47:36.168Z,6.03
2023-04-20T23:50:04.213Z,5.98
2023-04-20T23:52:32.414Z,5.95
2023-04-20T23:55:00.502Z,5.95
2023-04-20T23:57:28.560Z,5.94
2023-04-20T23:59:56.539Z,5.94
